Time;durP1;ratioP1;P1;durP2;ratioP2;P2;SDS_P1;SDS_P2;PMS_P1;PMS_P2;Temp;Humidity;BMP_temperature;BMP_pressure;BME280_temperature;BME280_humidity;BME280_pressure;Samples;Min_cycle;Max_cycle;Signal;HPM_P1;HPM_P2
2022/04/03 00:00:58;;;;;;;25.05;18.25;;;;;;;-0.6;100;94954.05;;;;
2022/04/03 00:01:58;;;;;;;25.05;18.25;;;;;;;-0.6;100;94954.05;;;;
2022/04/03 00:02:59;;;;;;;25.05;18.25;;;;;;;-0.6;100;94954.05;;;;
2022/04/03 00:03:59;;;;;;;25.05;18.25;;;;;;;-0.6;100;94954.05;;;;
2022/04/03 00:05:01;;;;;;;25.05;18.25;;;;;;;-0.6;100;94954.05;;;;
2022/04/03 00:06:01;;;;;;;25.05;18.25;;;;;;;-0.6;100;94954.05;;;;
2022/04/03 00:07:02;;;;;;;25.05;18.25;;;;;;;-0.6;100;94954.05;;;;
2022/04/03 00:08:03;;;;;;;25.05;18.25;;;;;;;-0.6;100;94954.05;;;;
2022/04/03 00:09:05;;;;;;;25.05;18.25;;;;;;;-0.6;100;94954.05;;;;
2022/04/03 00:10:05;;;;;;;25.05;18.25;;;;;;;-0.6;100;94954.05;;;;
2022/04/03 00:11:06;;;;;;;26.55;18.2;;;;;;;-0.61;100;94967.38;;;;
2022/04/03 00:12:08;;;;;;;26.55;18.2;;;;;;;-0.61;100;94967.38;;;;
2022/04/03 00:13:10;;;;;;;26.55;18.2;;;;;;;-0.61;100;94967.38;;;;
2022/04/03 00:14:11;;;;;;;26.55;18.2;;;;;;;-0.61;100;94967.38;;;;
2022/04/03 00:15:11;;;;;;;26.55;18.2;;;;;;;-0.61;100;94967.38;;;;
2022/04/03 00:16:12;;;;;;;26.55;18.2;;;;;;;-0.61;100;94967.38;;;;
2022/04/03 00:17:13;;;;;;;26.55;18.2;;;;;;;-0.61;100;94967.38;;;;
2022/04/03 00:18:14;;;;;;;26.55;18.2;;;;;;;-0.61;100;94967.38;;;;
2022/04/03 00:19:15;;;;;;;26.55;18.2;;;;;;;-0.61;100;94967.38;;;;
2022/04/03 00:20:16;;;;;;;26.55;18.2;;;;;;;-0.61;100;94967.38;;;;
2022/04/03 00:21:16;;;;;;;26.55;18.2;;;;;;;-0.61;100;94967.38;;;;
2022/04/03 00:22:18;;;;;;;22.55;16.05;;;;;;;-0.61;100;94969.2;;;;
2022/04/03 00:23:20;;;;;;;22.55;16.05;;;;;;;-0.61;100;94969.2;;;;
2022/04/03 00:24:21;;;;;;;22.55;16.05;;;;;;;-0.61;100;94969.2;;;;
2022/04/03 00:25:22;;;;;;;22.55;16.05;;;;;;;-0.61;100;94969.2;;;;
2022/04/03 00:26:22;;;;;;;22.55;16.05;;;;;;;-0.61;100;94969.2;;;;
2022/04/03 00:27:22;;;;;;;22.55;16.05;;;;;;;-0.61;100;94969.2;;;;
2022/04/03 00:28:26;;;;;;;22.55;16.05;;;;;;;-0.61;100;94969.2;;;;
2022/04/03 00:29:26;;;;;;;22.55;16.05;;;;;;;-0.61;100;94969.2;;;;
2022/04/03 00:30:27;;;;;;;22.55;16.05;;;;;;;-0.61;100;94969.2;;;;
2022/04/03 00:31:27;;;;;;;22.55;16.05;;;;;;;-0.61;100;94969.2;;;;
2022/04/03 00:32:28;;;;;;;21.3;15.55;;;;;;;-0.58;100;94981.59;;;;
2022/04/03 00:33:28;;;;;;;21.3;15.55;;;;;;;-0.58;100;94981.59;;;;
2022/04/03 00:34:29;;;;;;;21.3;15.55;;;;;;;-0.58;100;94981.59;;;;
2022/04/03 00:35:29;;;;;;;21.3;15.55;;;;;;;-0.58;100;94981.59;;;;
2022/04/03 00:36:30;;;;;;;21.3;15.55;;;;;;;-0.58;100;94981.59;;;;
2022/04/03 00:37:30;;;;;;;21.3;15.55;;;;;;;-0.58;100;94981.59;;;;
2022/04/03 00:38:31;;;;;;;21.3;15.55;;;;;;;-0.58;100;94981.59;;;;
2022/04/03 00:39:32;;;;;;;21.3;15.55;;;;;;;-0.58;100;94981.59;;;;
2022/04/03 00:40:33;;;;;;;21.3;15.55;;;;;;;-0.58;100;94981.59;;;;
2022/04/03 00:41:33;;;;;;;21.3;15.55;;;;;;;-0.58;100;94981.59;;;;
2022/04/03 00:42:36;;;;;;;21.3;15.55;;;;;;;-0.58;100;94981.59;;;;
2022/04/03 00:43:37;;;;;;;21.2;14.8;;;;;;;-0.53;100;94990.36;;;;
2022/04/03 00:44:37;;;;;;;21.2;14.8;;;;;;;-0.53;100;94990.36;;;;
2022/04/03 00:45:38;;;;;;;21.2;14.8;;;;;;;-0.53;100;94990.36;;;;
2022/04/03 00:46:43;;;;;;;21.2;14.8;;;;;;;-0.53;100;94990.36;;;;
2022/04/03 00:47:45;;;;;;;21.2;14.8;;;;;;;-0.53;100;94990.36;;;;
2022/04/03 00:48:47;;;;;;;21.2;14.8;;;;;;;-0.53;100;94990.36;;;;
2022/04/03 00:49:48;;;;;;;21.2;14.8;;;;;;;-0.53;100;94990.36;;;;
2022/04/03 00:50:48;;;;;;;21.2;14.8;;;;;;;-0.53;100;94990.36;;;;
2022/04/03 00:51:48;;;;;;;21.2;14.8;;;;;;;-0.53;100;94990.36;;;;
2022/04/03 00:52:49;;;;;;;21.2;14.8;;;;;;;-0.53;100;94990.36;;;;
2022/04/03 00:53:49;;;;;;;21.2;14.8;;;;;;;-0.53;100;94990.36;;;;
2022/04/03 00:54:51;;;;;;;23.35;15.3;;;;;;;-0.55;100;94988.81;;;;
2022/04/03 00:55:51;;;;;;;23.35;15.3;;;;;;;-0.55;100;94988.81;;;;
2022/04/03 00:56:52;;;;;;;23.35;15.3;;;;;;;-0.55;100;94988.81;;;;
2022/04/03 00:57:52;;;;;;;23.35;15.3;;;;;;;-0.55;100;94988.81;;;;
2022/04/03 00:58:53;;;;;;;23.35;15.3;;;;;;;-0.55;100;94988.81;;;;
2022/04/03 00:59:54;;;;;;;23.35;15.3;;;;;;;-0.55;100;94988.81;;;;
2022/04/03 01:00:54;;;;;;;23.35;15.3;;;;;;;-0.55;100;94988.81;;;;
2022/04/03 01:01:55;;;;;;;23.35;15.3;;;;;;;-0.55;100;94988.81;;;;
2022/04/03 01:02:55;;;;;;;23.35;15.3;;;;;;;-0.55;100;94988.81;;;;
2022/04/03 01:03:56;;;;;;;23.35;15.3;;;;;;;-0.55;100;94988.81;;;;
2022/04/03 01:04:56;;;;;;;22.7;15.7;;;;;;;-0.54;100;94993.09;;;;
2022/04/03 01:05:57;;;;;;;22.7;15.7;;;;;;;-0.54;100;94993.09;;;;
2022/04/03 01:06:57;;;;;;;22.7;15.7;;;;;;;-0.54;100;94993.09;;;;
2022/04/03 01:07:58;;;;;;;22.7;15.7;;;;;;;-0.54;100;94993.09;;;;
2022/04/03 01:08:58;;;;;;;22.7;15.7;;;;;;;-0.54;100;94993.09;;;;
2022/04/03 01:09:59;;;;;;;22.7;15.7;;;;;;;-0.54;100;94993.09;;;;
2022/04/03 01:11:00;;;;;;;22.7;15.7;;;;;;;-0.54;100;94993.09;;;;
2022/04/03 01:12:00;;;;;;;22.7;15.7;;;;;;;-0.54;100;94993.09;;;;
2022/04/03 01:13:01;;;;;;;22.7;15.7;;;;;;;-0.54;100;94993.09;;;;
2022/04/03 01:14:01;;;;;;;22.7;15.7;;;;;;;-0.54;100;94993.09;;;;
2022/04/03 01:15:02;;;;;;;22.7;15.7;;;;;;;-0.54;100;94993.09;;;;
2022/04/03 01:16:03;;;;;;;22.05;15.9;;;;;;;-0.59;100;94987.5;;;;
2022/04/03 01:17:04;;;;;;;22.05;15.9;;;;;;;-0.59;100;94987.5;;;;
2022/04/03 01:18:06;;;;;;;22.05;15.9;;;;;;;-0.59;100;94987.5;;;;
2022/04/03 01:19:07;;;;;;;22.05;15.9;;;;;;;-0.59;100;94987.5;;;;
2022/04/03 01:20:08;;;;;;;22.05;15.9;;;;;;;-0.59;100;94987.5;;;;
2022/04/03 01:21:10;;;;;;;22.05;15.9;;;;;;;-0.59;100;94987.5;;;;
2022/04/03 01:22:11;;;;;;;22.05;15.9;;;;;;;-0.59;100;94987.5;;;;
2022/04/03 01:23:12;;;;;;;22.05;15.9;;;;;;;-0.59;100;94987.5;;;;
2022/04/03 01:24:13;;;;;;;22.05;15.9;;;;;;;-0.59;100;94987.5;;;;
2022/04/03 01:25:16;;;;;;;22.05;15.9;;;;;;;-0.59;100;94987.5;;;;
2022/04/03 01:26:17;;;;;;;28.25;18.2;;;;;;;-0.55;100;94988.81;;;;
2022/04/03 01:27:17;;;;;;;28.25;18.2;;;;;;;-0.55;100;94988.81;;;;
2022/04/03 01:28:18;;;;;;;28.25;18.2;;;;;;;-0.55;100;94988.81;;;;
2022/04/03 01:29:18;;;;;;;28.25;18.2;;;;;;;-0.55;100;94988.81;;;;
2022/04/03 01:30:19;;;;;;;28.25;18.2;;;;;;;-0.55;100;94988.81;;;;
2022/04/03 01:31:20;;;;;;;28.25;18.2;;;;;;;-0.55;100;94988.81;;;;
2022/04/03 01:32:20;;;;;;;28.25;18.2;;;;;;;-0.55;100;94988.81;;;;
2022/04/03 01:33:21;;;;;;;28.25;18.2;;;;;;;-0.55;100;94988.81;;;;
2022/04/03 01:34:21;;;;;;;28.25;18.2;;;;;;;-0.55;100;94988.81;;;;
2022/04/03 01:35:23;;;;;;;28.25;18.2;;;;;;;-0.55;100;94988.81;;;;
2022/04/03 01:36:25;;;;;;;28.25;18.2;;;;;;;-0.55;100;94988.81;;;;
2022/04/03 01:37:25;;;;;;;28.6;19.75;;;;;;;-0.5;100;94994.5;;;;
2022/04/03 01:38:25;;;;;;;28.6;19.75;;;;;;;-0.5;100;94994.5;;;;
2022/04/03 01:39:26;;;;;;;28.6;19.75;;;;;;;-0.5;100;94994.5;;;;
2022/04/03 01:40:26;;;;;;;28.6;19.75;;;;;;;-0.5;100;94994.5;;;;
2022/04/03 01:41:27;;;;;;;28.6;19.75;;;;;;;-0.5;100;94994.5;;;;
2022/04/03 01:42:27;;;;;;;28.6;19.75;;;;;;;-0.5;100;94994.5;;;;
2022/04/03 01:43:28;;;;;;;28.6;19.75;;;;;;;-0.5;100;94994.5;;;;
2022/04/03 01:44:28;;;;;;;28.6;19.75;;;;;;;-0.5;100;94994.5;;;;
2022/04/03 01:45:29;;;;;;;28.6;19.75;;;;;;;-0.5;100;94994.5;;;;
2022/04/03 01:46:30;;;;;;;28.6;19.75;;;;;;;-0.5;100;94994.5;;;;
2022/04/03 01:47:30;;;;;;;26.5;17.5;;;;;;;-0.48;100;95002.59;;;;
2022/04/03 01:48:32;;;;;;;26.5;17.5;;;;;;;-0.48;100;95002.59;;;;
2022/04/03 01:49:33;;;;;;;26.5;17.5;;;;;;;-0.48;100;95002.59;;;;
2022/04/03 01:50:33;;;;;;;26.5;17.5;;;;;;;-0.48;100;95002.59;;;;
2022/04/03 01:51:34;;;;;;;26.5;17.5;;;;;;;-0.48;100;95002.59;;;;
2022/04/03 01:52:35;;;;;;;26.5;17.5;;;;;;;-0.48;100;95002.59;;;;
2022/04/03 01:53:36;;;;;;;26.5;17.5;;;;;;;-0.48;100;95002.59;;;;
2022/04/03 01:54:36;;;;;;;26.5;17.5;;;;;;;-0.48;100;95002.59;;;;
2022/04/03 01:55:37;;;;;;;26.5;17.5;;;;;;;-0.48;100;95002.59;;;;
2022/04/03 01:56:38;;;;;;;26.5;17.5;;;;;;;-0.48;100;95002.59;;;;
2022/04/03 01:57:39;;;;;;;26.5;17.5;;;;;;;-0.48;100;95002.59;;;;
2022/04/03 01:58:39;;;;;;;27.85;17.75;;;;;;;-0.49;100;95009.4;;;;
2022/04/03 01:59:40;;;;;;;27.85;17.75;;;;;;;-0.49;100;95009.4;;;;
2022/04/03 02:00:40;;;;;;;27.85;17.75;;;;;;;-0.49;100;95009.4;;;;
2022/04/03 02:01:41;;;;;;;27.85;17.75;;;;;;;-0.49;100;95009.4;;;;
2022/04/03 02:02:41;;;;;;;27.85;17.75;;;;;;;-0.49;100;95009.4;;;;
2022/04/03 02:03:42;;;;;;;27.85;17.75;;;;;;;-0.49;100;95009.4;;;;
2022/04/03 02:04:44;;;;;;;27.85;17.75;;;;;;;-0.49;100;95009.4;;;;
2022/04/03 02:05:45;;;;;;;27.85;17.75;;;;;;;-0.49;100;95009.4;;;;
2022/04/03 02:06:45;;;;;;;27.85;17.75;;;;;;;-0.49;100;95009.4;;;;
2022/04/03 02:07:46;;;;;;;27.85;17.75;;;;;;;-0.49;100;95009.4;;;;
2022/04/03 02:08:46;;;;;;;27.85;17.75;;;;;;;-0.49;100;95009.4;;;;
2022/04/03 02:09:47;;;;;;;27.55;17.8;;;;;;;-0.58;100;95009.05;;;;
2022/04/03 02:10:47;;;;;;;27.55;17.8;;;;;;;-0.58;100;95009.05;;;;
2022/04/03 02:11:48;;;;;;;27.55;17.8;;;;;;;-0.58;100;95009.05;;;;
2022/04/03 02:12:48;;;;;;;27.55;17.8;;;;;;;-0.58;100;95009.05;;;;
2022/04/03 02:13:49;;;;;;;27.55;17.8;;;;;;;-0.58;100;95009.05;;;;
2022/04/03 02:14:50;;;;;;;27.55;17.8;;;;;;;-0.58;100;95009.05;;;;
2022/04/03 02:15:50;;;;;;;27.55;17.8;;;;;;;-0.58;100;95009.05;;;;
2022/04/03 02:16:51;;;;;;;27.55;17.8;;;;;;;-0.58;100;95009.05;;;;
2022/04/03 02:17:53;;;;;;;27.55;17.8;;;;;;;-0.58;100;95009.05;;;;
2022/04/03 02:18:53;;;;;;;27.55;17.8;;;;;;;-0.58;100;95009.05;;;;
2022/04/03 02:19:54;;;;;;;27.65;17.25;;;;;;;-0.66;100;95010.82;;;;
2022/04/03 02:20:55;;;;;;;27.65;17.25;;;;;;;-0.66;100;95010.82;;;;
2022/04/03 02:21:55;;;;;;;27.65;17.25;;;;;;;-0.66;100;95010.82;;;;
2022/04/03 02:22:56;;;;;;;27.65;17.25;;;;;;;-0.66;100;95010.82;;;;
2022/04/03 02:23:56;;;;;;;27.65;17.25;;;;;;;-0.66;100;95010.82;;;;
2022/04/03 02:24:56;;;;;;;27.65;17.25;;;;;;;-0.66;100;95010.82;;;;
2022/04/03 02:25:57;;;;;;;27.65;17.25;;;;;;;-0.66;100;95010.82;;;;
2022/04/03 02:26:57;;;;;;;27.65;17.25;;;;;;;-0.66;100;95010.82;;;;
2022/04/03 02:27:59;;;;;;;27.65;17.25;;;;;;;-0.66;100;95010.82;;;;
2022/04/03 02:28:59;;;;;;;27.65;17.25;;;;;;;-0.66;100;95010.82;;;;
2022/04/03 02:30:00;;;;;;;27.65;17.25;;;;;;;-0.66;100;95010.82;;;;
2022/04/03 02:31:01;;;;;;;32.65;20.4;;;;;;;-0.6;100;95019.42;;;;
2022/04/03 02:32:01;;;;;;;32.65;20.4;;;;;;;-0.6;100;95019.42;;;;
2022/04/03 02:33:02;;;;;;;32.65;20.4;;;;;;;-0.6;100;95019.42;;;;
2022/04/03 02:34:03;;;;;;;32.65;20.4;;;;;;;-0.6;100;95019.42;;;;
2022/04/03 02:35:04;;;;;;;32.65;20.4;;;;;;;-0.6;100;95019.42;;;;
2022/04/03 02:36:07;;;;;;;32.65;20.4;;;;;;;-0.6;100;95019.42;;;;
2022/04/03 02:37:08;;;;;;;32.65;20.4;;;;;;;-0.6;100;95019.42;;;;
2022/04/03 02:38:08;;;;;;;32.65;20.4;;;;;;;-0.6;100;95019.42;;;;
2022/04/03 02:39:09;;;;;;;32.65;20.4;;;;;;;-0.6;100;95019.42;;;;
2022/04/03 02:40:10;;;;;;;32.65;20.4;;;;;;;-0.6;100;95019.42;;;;
2022/04/03 02:41:13;;;;;;;30.95;19.25;;;;;;;-0.55;100;95024.59;;;;
2022/04/03 02:42:13;;;;;;;30.95;19.25;;;;;;;-0.55;100;95024.59;;;;
2022/04/03 02:43:14;;;;;;;30.95;19.25;;;;;;;-0.55;100;95024.59;;;;
2022/04/03 02:44:15;;;;;;;30.95;19.25;;;;;;;-0.55;100;95024.59;;;;
2022/04/03 02:45:16;;;;;;;30.95;19.25;;;;;;;-0.55;100;95024.59;;;;
2022/04/03 02:46:17;;;;;;;30.95;19.25;;;;;;;-0.55;100;95024.59;;;;
2022/04/03 02:47:17;;;;;;;30.95;19.25;;;;;;;-0.55;100;95024.59;;;;
2022/04/03 02:48:18;;;;;;;30.95;19.25;;;;;;;-0.55;100;95024.59;;;;
2022/04/03 02:49:18;;;;;;;30.95;19.25;;;;;;;-0.55;100;95024.59;;;;
2022/04/03 02:50:20;;;;;;;30.95;19.25;;;;;;;-0.55;100;95024.59;;;;
2022/04/03 02:51:21;;;;;;;30.95;19.25;;;;;;;-0.55;100;95024.59;;;;
2022/04/03 02:52:22;;;;;;;31.85;19.6;;;;;;;-0.53;100;95035.86;;;;
2022/04/03 02:53:22;;;;;;;31.85;19.6;;;;;;;-0.53;100;95035.86;;;;
2022/04/03 02:54:23;;;;;;;31.85;19.6;;;;;;;-0.53;100;95035.86;;;;
2022/04/03 02:55:23;;;;;;;31.85;19.6;;;;;;;-0.53;100;95035.86;;;;
2022/04/03 02:56:25;;;;;;;31.85;19.6;;;;;;;-0.53;100;95035.86;;;;
2022/04/03 02:57:25;;;;;;;31.85;19.6;;;;;;;-0.53;100;95035.86;;;;
2022/04/03 02:58:26;;;;;;;31.85;19.6;;;;;;;-0.53;100;95035.86;;;;
2022/04/03 02:59:27;;;;;;;31.85;19.6;;;;;;;-0.53;100;95035.86;;;;
2022/04/03 03:00:28;;;;;;;31.85;19.6;;;;;;;-0.53;100;95035.86;;;;
2022/04/03 03:01:29;;;;;;;31.85;19.6;;;;;;;-0.53;100;95035.86;;;;
2022/04/03 03:02:30;;;;;;;31.2;19;;;;;;;-0.52;100;95038.92;;;;
2022/04/03 03:03:30;;;;;;;31.2;19;;;;;;;-0.52;100;95038.92;;;;
2022/04/03 03:04:31;;;;;;;31.2;19;;;;;;;-0.52;100;95038.92;;;;
2022/04/03 03:05:32;;;;;;;31.2;19;;;;;;;-0.52;100;95038.92;;;;
2022/04/03 03:06:33;;;;;;;31.2;19;;;;;;;-0.52;100;95038.92;;;;
2022/04/03 03:07:33;;;;;;;31.2;19;;;;;;;-0.52;100;95038.92;;;;
2022/04/03 03:08:36;;;;;;;31.2;19;;;;;;;-0.52;100;95038.92;;;;
2022/04/03 03:09:36;;;;;;;31.2;19;;;;;;;-0.52;100;95038.92;;;;
2022/04/03 03:10:37;;;;;;;31.2;19;;;;;;;-0.52;100;95038.92;;;;
2022/04/03 03:11:37;;;;;;;31.2;19;;;;;;;-0.52;100;95038.92;;;;
2022/04/03 03:12:38;;;;;;;31.2;19;;;;;;;-0.52;100;95038.92;;;;
2022/04/03 03:13:38;;;;;;;26.3;17.6;;;;;;;-0.59;100;95044.49;;;;
2022/04/03 03:14:39;;;;;;;26.3;17.6;;;;;;;-0.59;100;95044.49;;;;
2022/04/03 03:15:39;;;;;;;26.3;17.6;;;;;;;-0.59;100;95044.49;;;;
2022/04/03 03:16:40;;;;;;;26.3;17.6;;;;;;;-0.59;100;95044.49;;;;
2022/04/03 03:17:40;;;;;;;26.3;17.6;;;;;;;-0.59;100;95044.49;;;;
2022/04/03 03:18:42;;;;;;;26.3;17.6;;;;;;;-0.59;100;95044.49;;;;
2022/04/03 03:19:42;;;;;;;26.3;17.6;;;;;;;-0.59;100;95044.49;;;;
2022/04/03 03:20:43;;;;;;;26.3;17.6;;;;;;;-0.59;100;95044.49;;;;
2022/04/03 03:21:43;;;;;;;26.3;17.6;;;;;;;-0.59;100;95044.49;;;;
2022/04/03 03:22:44;;;;;;;26.3;17.6;;;;;;;-0.59;100;95044.49;;;;
2022/04/03 03:23:44;;;;;;;26.4;17.2;;;;;;;-0.63;100;95048.1;;;;
2022/04/03 03:24:45;;;;;;;26.4;17.2;;;;;;;-0.63;100;95048.1;;;;
2022/04/03 03:25:45;;;;;;;26.4;17.2;;;;;;;-0.63;100;95048.1;;;;
2022/04/03 03:26:46;;;;;;;26.4;17.2;;;;;;;-0.63;100;95048.1;;;;
2022/04/03 03:27:47;;;;;;;26.4;17.2;;;;;;;-0.63;100;95048.1;;;;
2022/04/03 03:28:47;;;;;;;26.4;17.2;;;;;;;-0.63;100;95048.1;;;;
2022/04/03 03:29:48;;;;;;;26.4;17.2;;;;;;;-0.63;100;95048.1;;;;
2022/04/03 03:30:48;;;;;;;26.4;17.2;;;;;;;-0.63;100;95048.1;;;;
2022/04/03 03:31:48;;;;;;;26.4;17.2;;;;;;;-0.63;100;95048.1;;;;
2022/04/03 03:32:49;;;;;;;26.4;17.2;;;;;;;-0.63;100;95048.1;;;;
2022/04/03 03:33:49;;;;;;;26.4;17.2;;;;;;;-0.63;100;95048.1;;;;
2022/04/03 03:34:50;;;;;;;26.6;17.55;;;;;;;-0.62;100;95058.11;;;;
2022/04/03 03:35:51;;;;;;;26.6;17.55;;;;;;;-0.62;100;95058.11;;;;
2022/04/03 03:36:51;;;;;;;26.6;17.55;;;;;;;-0.62;100;95058.11;;;;
2022/04/03 03:37:52;;;;;;;26.6;17.55;;;;;;;-0.62;100;95058.11;;;;
2022/04/03 03:38:52;;;;;;;26.6;17.55;;;;;;;-0.62;100;95058.11;;;;
2022/04/03 03:39:53;;;;;;;26.6;17.55;;;;;;;-0.62;100;95058.11;;;;
2022/04/03 03:40:53;;;;;;;26.6;17.55;;;;;;;-0.62;100;95058.11;;;;
2022/04/03 03:41:55;;;;;;;26.6;17.55;;;;;;;-0.62;100;95058.11;;;;
2022/04/03 03:42:56;;;;;;;26.6;17.55;;;;;;;-0.62;100;95058.11;;;;
2022/04/03 03:43:56;;;;;;;26.6;17.55;;;;;;;-0.62;100;95058.11;;;;
2022/04/03 03:44:57;;;;;;;26.6;17.55;;;;;;;-0.62;100;95058.11;;;;
2022/04/03 03:45:57;;;;;;;27.5;17.3;;;;;;;-0.62;100;95058.11;;;;
2022/04/03 03:46:58;;;;;;;27.5;17.3;;;;;;;-0.62;100;95058.11;;;;
2022/04/03 03:47:58;;;;;;;27.5;17.3;;;;;;;-0.62;100;95058.11;;;;
2022/04/03 03:48:59;;;;;;;27.5;17.3;;;;;;;-0.62;100;95058.11;;;;
2022/04/03 03:49:59;;;;;;;27.5;17.3;;;;;;;-0.62;100;95058.11;;;;
2022/04/03 03:50:59;;;;;;;27.5;17.3;;;;;;;-0.62;100;95058.11;;;;
2022/04/03 03:52:00;;;;;;;27.5;17.3;;;;;;;-0.62;100;95058.11;;;;
2022/04/03 03:53:01;;;;;;;27.5;17.3;;;;;;;-0.62;100;95058.11;;;;
2022/04/03 03:54:01;;;;;;;27.5;17.3;;;;;;;-0.62;100;95058.11;;;;
2022/04/03 03:55:03;;;;;;;27.5;17.3;;;;;;;-0.62;100;95058.11;;;;
2022/04/03 03:56:05;;;;;;;26.55;17.6;;;;;;;-0.61;100;95069.55;;;;
2022/04/03 03:57:05;;;;;;;26.55;17.6;;;;;;;-0.61;100;95069.55;;;;
2022/04/03 03:58:06;;;;;;;26.55;17.6;;;;;;;-0.61;100;95069.55;;;;
2022/04/03 03:59:07;;;;;;;26.55;17.6;;;;;;;-0.61;100;95069.55;;;;
2022/04/03 04:00:09;;;;;;;26.55;17.6;;;;;;;-0.61;100;95069.55;;;;
2022/04/03 04:01:12;;;;;;;26.55;17.6;;;;;;;-0.61;100;95069.55;;;;
2022/04/03 04:02:13;;;;;;;26.55;17.6;;;;;;;-0.61;100;95069.55;;;;
2022/04/03 04:03:13;;;;;;;26.55;17.6;;;;;;;-0.61;100;95069.55;;;;
2022/04/03 04:04:14;;;;;;;26.55;17.6;;;;;;;-0.61;100;95069.55;;;;
2022/04/03 04:05:14;;;;;;;26.55;17.6;;;;;;;-0.61;100;95069.55;;;;
2022/04/03 04:06:15;;;;;;;26.55;17.6;;;;;;;-0.61;100;95069.55;;;;
2022/04/03 04:07:16;;;;;;;26.2;17.25;;;;;;;-0.66;100;95085.53;;;;
2022/04/03 04:08:16;;;;;;;26.2;17.25;;;;;;;-0.66;100;95085.53;;;;
2022/04/03 04:09:16;;;;;;;26.2;17.25;;;;;;;-0.66;100;95085.53;;;;
2022/04/03 04:10:18;;;;;;;26.2;17.25;;;;;;;-0.66;100;95085.53;;;;
2022/04/03 04:11:18;;;;;;;26.2;17.25;;;;;;;-0.66;100;95085.53;;;;
2022/04/03 04:12:19;;;;;;;26.2;17.25;;;;;;;-0.66;100;95085.53;;;;
2022/04/03 04:13:20;;;;;;;26.2;17.25;;;;;;;-0.66;100;95085.53;;;;
2022/04/03 04:14:20;;;;;;;26.2;17.25;;;;;;;-0.66;100;95085.53;;;;
2022/04/03 04:15:20;;;;;;;26.2;17.25;;;;;;;-0.66;100;95085.53;;;;
2022/04/03 04:16:21;;;;;;;26.2;17.25;;;;;;;-0.66;100;95085.53;;;;
2022/04/03 04:17:21;;;;;;;26.5;17.4;;;;;;;-0.67;100;95088.7;;;;
2022/04/03 04:18:22;;;;;;;26.5;17.4;;;;;;;-0.67;100;95088.7;;;;
2022/04/03 04:19:22;;;;;;;26.5;17.4;;;;;;;-0.67;100;95088.7;;;;
2022/04/03 04:20:23;;;;;;;26.5;17.4;;;;;;;-0.67;100;95088.7;;;;
2022/04/03 04:21:23;;;;;;;26.5;17.4;;;;;;;-0.67;100;95088.7;;;;
2022/04/03 04:22:24;;;;;;;26.5;17.4;;;;;;;-0.67;100;95088.7;;;;
2022/04/03 04:23:24;;;;;;;26.5;17.4;;;;;;;-0.67;100;95088.7;;;;
2022/04/03 04:24:25;;;;;;;26.5;17.4;;;;;;;-0.67;100;95088.7;;;;
2022/04/03 04:25:25;;;;;;;26.5;17.4;;;;;;;-0.67;100;95088.7;;;;
2022/04/03 04:26:26;;;;;;;26.5;17.4;;;;;;;-0.67;100;95088.7;;;;
2022/04/03 04:27:27;;;;;;;26.5;17.4;;;;;;;-0.67;100;95088.7;;;;
2022/04/03 04:28:27;;;;;;;27.1;17.25;;;;;;;-0.7;100;95090.84;;;;
2022/04/03 04:29:28;;;;;;;27.1;17.25;;;;;;;-0.7;100;95090.84;;;;
2022/04/03 04:30:28;;;;;;;27.1;17.25;;;;;;;-0.7;100;95090.84;;;;
2022/04/03 04:31:28;;;;;;;27.1;17.25;;;;;;;-0.7;100;95090.84;;;;
2022/04/03 04:32:29;;;;;;;27.1;17.25;;;;;;;-0.7;100;95090.84;;;;
2022/04/03 04:33:29;;;;;;;27.1;17.25;;;;;;;-0.7;100;95090.84;;;;
2022/04/03 04:34:30;;;;;;;27.1;17.25;;;;;;;-0.7;100;95090.84;;;;
2022/04/03 04:35:30;;;;;;;27.1;17.25;;;;;;;-0.7;100;95090.84;;;;
2022/04/03 04:36:31;;;;;;;27.1;17.25;;;;;;;-0.7;100;95090.84;;;;
2022/04/03 04:37:31;;;;;;;27.1;17.25;;;;;;;-0.7;100;95090.84;;;;
2022/04/03 04:38:32;;;;;;;27.1;17.25;;;;;;;-0.7;100;95090.84;;;;
2022/04/03 04:39:33;;;;;;;31.05;19.55;;;;;;;-0.64;100;95100.36;;;;
2022/04/03 04:40:33;;;;;;;31.05;19.55;;;;;;;-0.64;100;95100.36;;;;
2022/04/03 04:41:34;;;;;;;31.05;19.55;;;;;;;-0.64;100;95100.36;;;;
2022/04/03 04:42:34;;;;;;;31.05;19.55;;;;;;;-0.64;100;95100.36;;;;
2022/04/03 04:43:35;;;;;;;31.05;19.55;;;;;;;-0.64;100;95100.36;;;;
2022/04/03 04:44:36;;;;;;;31.05;19.55;;;;;;;-0.64;100;95100.36;;;;
2022/04/03 04:45:36;;;;;;;31.05;19.55;;;;;;;-0.64;100;95100.36;;;;
2022/04/03 04:46:37;;;;;;;31.05;19.55;;;;;;;-0.64;100;95100.36;;;;
2022/04/03 04:47:37;;;;;;;31.05;19.55;;;;;;;-0.64;100;95100.36;;;;
2022/04/03 04:48:38;;;;;;;31.05;19.55;;;;;;;-0.64;100;95100.36;;;;
2022/04/03 04:49:38;;;;;;;29.55;19;;;;;;;-0.59;100;95105.95;;;;
2022/04/03 04:50:39;;;;;;;29.55;19;;;;;;;-0.59;100;95105.95;;;;
2022/04/03 04:51:39;;;;;;;29.55;19;;;;;;;-0.59;100;95105.95;;;;
2022/04/03 04:52:40;;;;;;;29.55;19;;;;;;;-0.59;100;95105.95;;;;
2022/04/03 04:53:41;;;;;;;29.55;19;;;;;;;-0.59;100;95105.95;;;;
2022/04/03 04:54:42;;;;;;;29.55;19;;;;;;;-0.59;100;95105.95;;;;
2022/04/03 04:55:42;;;;;;;29.55;19;;;;;;;-0.59;100;95105.95;;;;
2022/04/03 04:56:43;;;;;;;29.55;19;;;;;;;-0.59;100;95105.95;;;;
2022/04/03 04:57:44;;;;;;;29.55;19;;;;;;;-0.59;100;95105.95;;;;
2022/04/03 04:58:49;;;;;;;29.55;19;;;;;;;-0.59;100;95105.95;;;;
2022/04/03 04:59:50;;;;;;;29.55;19;;;;;;;-0.59;100;95105.95;;;;
2022/04/03 05:00:50;;;;;;;29.25;18.8;;;;;;;-0.54;100;95110.69;;;;
2022/04/03 05:01:50;;;;;;;29.25;18.8;;;;;;;-0.54;100;95110.69;;;;
2022/04/03 05:02:51;;;;;;;29.25;18.8;;;;;;;-0.54;100;95110.69;;;;
2022/04/03 05:03:51;;;;;;;29.25;18.8;;;;;;;-0.54;100;95110.69;;;;
2022/04/03 05:04:52;;;;;;;29.25;18.8;;;;;;;-0.54;100;95110.69;;;;
2022/04/03 05:05:52;;;;;;;29.25;18.8;;;;;;;-0.54;100;95110.69;;;;
2022/04/03 05:06:53;;;;;;;29.25;18.8;;;;;;;-0.54;100;95110.69;;;;
2022/04/03 05:07:55;;;;;;;29.25;18.8;;;;;;;-0.54;100;95110.69;;;;
2022/04/03 05:08:57;;;;;;;29.25;18.8;;;;;;;-0.54;100;95110.69;;;;
2022/04/03 05:09:58;;;;;;;29.25;18.8;;;;;;;-0.54;100;95110.69;;;;
2022/04/03 05:10:59;;;;;;;27.25;17.95;;;;;;;-0.49;100;95130.88;;;;
2022/04/03 05:11:59;;;;;;;27.25;17.95;;;;;;;-0.49;100;95130.88;;;;
2022/04/03 05:13:01;;;;;;;27.25;17.95;;;;;;;-0.49;100;95130.88;;;;
2022/04/03 05:14:01;;;;;;;27.25;17.95;;;;;;;-0.49;100;95130.88;;;;
2022/04/03 05:15:02;;;;;;;27.25;17.95;;;;;;;-0.49;100;95130.88;;;;
2022/04/03 05:16:04;;;;;;;27.25;17.95;;;;;;;-0.49;100;95130.88;;;;
2022/04/03 05:17:06;;;;;;;27.25;17.95;;;;;;;-0.49;100;95130.88;;;;
2022/04/03 05:18:06;;;;;;;27.25;17.95;;;;;;;-0.49;100;95130.88;;;;
2022/04/03 05:19:07;;;;;;;27.25;17.95;;;;;;;-0.49;100;95130.88;;;;
2022/04/03 05:20:12;;;;;;;27.25;17.95;;;;;;;-0.49;100;95130.88;;;;
2022/04/03 05:21:14;;;;;;;27.25;17.95;;;;;;;-0.49;100;95130.88;;;;
2022/04/03 05:22:15;;;;;;;27;18.25;;;;;;;-0.46;100;95140.7;;;;
2022/04/03 05:23:16;;;;;;;27;18.25;;;;;;;-0.46;100;95140.7;;;;
2022/04/03 05:24:16;;;;;;;27;18.25;;;;;;;-0.46;100;95140.7;;;;
2022/04/03 05:25:17;;;;;;;27;18.25;;;;;;;-0.46;100;95140.7;;;;
2022/04/03 05:26:17;;;;;;;27;18.25;;;;;;;-0.46;100;95140.7;;;;
2022/04/03 05:27:18;;;;;;;27;18.25;;;;;;;-0.46;100;95140.7;;;;
2022/04/03 05:28:21;;;;;;;27;18.25;;;;;;;-0.46;100;95140.7;;;;
2022/04/03 05:29:21;;;;;;;27;18.25;;;;;;;-0.46;100;95140.7;;;;
2022/04/03 05:30:22;;;;;;;27;18.25;;;;;;;-0.46;100;95140.7;;;;
2022/04/03 05:31:24;;;;;;;27;18.25;;;;;;;-0.46;100;95140.7;;;;
2022/04/03 05:32:26;;;;;;;27.04999;17.6;;;;;;;-0.5;100;95150.94;;;;
2022/04/03 05:33:28;;;;;;;27.04999;17.6;;;;;;;-0.5;100;95150.94;;;;
2022/04/03 05:34:29;;;;;;;27.04999;17.6;;;;;;;-0.5;100;95150.94;;;;
2022/04/03 05:35:29;;;;;;;27.04999;17.6;;;;;;;-0.5;100;95150.94;;;;
2022/04/03 05:36:30;;;;;;;27.04999;17.6;;;;;;;-0.5;100;95150.94;;;;
2022/04/03 05:37:30;;;;;;;27.04999;17.6;;;;;;;-0.5;100;95150.94;;;;
2022/04/03 05:38:32;;;;;;;27.04999;17.6;;;;;;;-0.5;100;95150.94;;;;
2022/04/03 05:39:32;;;;;;;27.04999;17.6;;;;;;;-0.5;100;95150.94;;;;
2022/04/03 05:40:32;;;;;;;27.04999;17.6;;;;;;;-0.5;100;95150.94;;;;
2022/04/03 05:41:33;;;;;;;27.04999;17.6;;;;;;;-0.5;100;95150.94;;;;
2022/04/03 05:42:35;;;;;;;27.04999;17.6;;;;;;;-0.5;100;95150.94;;;;
2022/04/03 05:43:36;;;;;;;28.7;18;;;;;;;-0.49;100;95159.63;;;;
2022/04/03 05:44:36;;;;;;;28.7;18;;;;;;;-0.49;100;95159.63;;;;
2022/04/03 05:45:38;;;;;;;28.7;18;;;;;;;-0.49;100;95159.63;;;;
2022/04/03 05:46:38;;;;;;;28.7;18;;;;;;;-0.49;100;95159.63;;;;
2022/04/03 05:47:39;;;;;;;28.7;18;;;;;;;-0.49;100;95159.63;;;;
2022/04/03 05:48:39;;;;;;;28.7;18;;;;;;;-0.49;100;95159.63;;;;
2022/04/03 05:49:40;;;;;;;28.7;18;;;;;;;-0.49;100;95159.63;;;;
2022/04/03 05:50:40;;;;;;;28.7;18;;;;;;;-0.49;100;95159.63;;;;
2022/04/03 05:51:41;;;;;;;28.7;18;;;;;;;-0.49;100;95159.63;;;;
2022/04/03 05:52:41;;;;;;;28.7;18;;;;;;;-0.49;100;95159.63;;;;
2022/04/03 05:53:44;;;;;;;28.7;18;;;;;;;-0.49;100;95159.63;;;;
2022/04/03 05:54:44;;;;;;;27.35;17.3;;;;;;;-0.46;100;95163.67;;;;
2022/04/03 05:55:45;;;;;;;27.35;17.3;;;;;;;-0.46;100;95163.67;;;;
2022/04/03 05:56:46;;;;;;;27.35;17.3;;;;;;;-0.46;100;95163.67;;;;
2022/04/03 05:57:47;;;;;;;27.35;17.3;;;;;;;-0.46;100;95163.67;;;;
2022/04/03 05:58:50;;;;;;;27.35;17.3;;;;;;;-0.46;100;95163.67;;;;
2022/04/03 05:59:51;;;;;;;27.35;17.3;;;;;;;-0.46;100;95163.67;;;;
2022/04/03 06:00:51;;;;;;;27.35;17.3;;;;;;;-0.46;100;95163.67;;;;
2022/04/03 06:01:52;;;;;;;27.35;17.3;;;;;;;-0.46;100;95163.67;;;;
2022/04/03 06:02:53;;;;;;;27.35;17.3;;;;;;;-0.46;100;95163.67;;;;
2022/04/03 06:03:55;;;;;;;27.35;17.3;;;;;;;-0.46;100;95163.67;;;;
2022/04/03 06:04:57;;;;;;;27.75;16.6;;;;;;;-0.38;100;95167.63;;;;
2022/04/03 06:05:58;;;;;;;27.75;16.6;;;;;;;-0.38;100;95167.63;;;;
2022/04/03 06:06:58;;;;;;;27.75;16.6;;;;;;;-0.38;100;95167.63;;;;
2022/04/03 06:07:58;;;;;;;27.75;16.6;;;;;;;-0.38;100;95167.63;;;;